sensor_id;sensor_type;location;lat;lon;timestamp;temperature;humidity
40868;DHT22;26586;50.708;22.412;2022-09-09T00:02:22;20.60;56.50
40868;DHT22;26586;50.708;22.412;2022-09-09T00:04:59;20.60;56.80
40868;DHT22;26586;50.708;22.412;2022-09-09T00:07:44;20.60;56.90
40868;DHT22;26586;50.708;22.412;2022-09-09T00:10:29;20.60;57.20
40868;DHT22;26586;50.708;22.412;2022-09-09T00:18:22;20.50;57.50
40868;DHT22;26586;50.708;22.412;2022-09-09T00:23:30;20.40;57.80
40868;DHT22;26586;50.708;22.412;2022-09-09T00:29:14;20.40;57.70
40868;DHT22;26586;50.708;22.412;2022-09-09T00:31:42;20.40;57.70
40868;DHT22;26586;50.708;22.412;2022-09-09T00:34:23;20.40;57.90
40868;DHT22;26586;50.708;22.412;2022-09-09T00:36:52;20.30;58.00
40868;DHT22;26586;50.708;22.412;2022-09-09T00:39:36;20.30;58.10
40868;DHT22;26586;50.708;22.412;2022-09-09T00:47:44;20.30;58.30
40868;DHT22;26586;50.708;22.412;2022-09-09T00:56:26;20.20;58.90
40868;DHT22;26586;50.708;22.412;2022-09-09T01:01:55;20.10;58.90
40868;DHT22;26586;50.708;22.412;2022-09-09T01:04:30;20.20;59.00
40868;DHT22;26586;50.708;22.412;2022-09-09T01:07:10;20.20;59.00
40868;DHT22;26586;50.708;22.412;2022-09-09T01:09:56;20.10;59.10
40868;DHT22;26586;50.708;22.412;2022-09-09T01:12:42;20.10;59.10
40868;DHT22;26586;50.708;22.412;2022-09-09T01:15:15;20.20;59.10
40868;DHT22;26586;50.708;22.412;2022-09-09T01:17:52;20.20;59.10
40868;DHT22;26586;50.708;22.412;2022-09-09T01:23:33;20.20;59.40
40868;DHT22;26586;50.708;22.412;2022-09-09T01:26:18;20.20;59.10
40868;DHT22;26586;50.708;22.412;2022-09-09T01:28:49;20.10;59.40
40868;DHT22;26586;50.708;22.412;2022-09-09T01:31:40;20.10;59.40
40868;DHT22;26586;50.708;22.412;2022-09-09T01:34:14;20.00;59.40
40868;DHT22;26586;50.708;22.412;2022-09-09T01:36:42;20.00;59.70
40868;DHT22;26586;50.708;22.412;2022-09-09T01:39:10;20.10;59.80
40868;DHT22;26586;50.708;22.412;2022-09-09T01:41:37;20.10;59.80
40868;DHT22;26586;50.708;22.412;2022-09-09T01:44:04;20.10;59.90
40868;DHT22;26586;50.708;22.412;2022-09-09T01:46:31;20.00;60.00
40868;DHT22;26586;50.708;22.412;2022-09-09T01:48:57;20.00;60.10
40868;DHT22;26586;50.708;22.412;2022-09-09T01:51:24;20.10;60.30
40868;DHT22;26586;50.708;22.412;2022-09-09T01:53:51;20.00;60.10
40868;DHT22;26586;50.708;22.412;2022-09-09T02:06:52;20.00;60.30
40868;DHT22;26586;50.708;22.412;2022-09-09T02:09:23;20.00;61.10
40868;DHT22;26586;50.708;22.412;2022-09-09T02:12:16;20.00;60.40
40868;DHT22;26586;50.708;22.412;2022-09-09T02:14:45;20.10;60.40
40868;DHT22;26586;50.708;22.412;2022-09-09T02:17:16;20.10;60.30
40868;DHT22;26586;50.708;22.412;2022-09-09T02:19:49;20.10;60.40
40868;DHT22;26586;50.708;22.412;2022-09-09T02:22:19;20.10;60.50
40868;DHT22;26586;50.708;22.412;2022-09-09T02:24:47;20.00;60.70
40868;DHT22;26586;50.708;22.412;2022-09-09T02:27:16;20.00;60.60
40868;DHT22;26586;50.708;22.412;2022-09-09T02:29:45;20.00;60.70
40868;DHT22;26586;50.708;22.412;2022-09-09T02:32:16;20.00;61.20
40868;DHT22;26586;50.708;22.412;2022-09-09T02:34:47;20.00;60.90
40868;DHT22;26586;50.708;22.412;2022-09-09T02:37:16;20.00;61.00
40868;DHT22;26586;50.708;22.412;2022-09-09T02:39:44;20.00;61.00
40868;DHT22;26586;50.708;22.412;2022-09-09T02:42:10;20.00;61.20
40868;DHT22;26586;50.708;22.412;2022-09-09T02:44:36;20.00;61.50
40868;DHT22;26586;50.708;22.412;2022-09-09T02:55:33;20.00;61.50
40868;DHT22;26586;50.708;22.412;2022-09-09T02:58:05;20.00;61.60
40868;DHT22;26586;50.708;22.412;2022-09-09T03:00:33;20.00;61.60
40868;DHT22;26586;50.708;22.412;2022-09-09T03:03:03;20.00;61.60
40868;DHT22;26586;50.708;22.412;2022-09-09T03:05:30;20.00;61.50
40868;DHT22;26586;50.708;22.412;2022-09-09T03:07:56;20.00;62.00
40868;DHT22;26586;50.708;22.412;2022-09-09T03:10:22;20.00;61.70
40868;DHT22;26586;50.708;22.412;2022-09-09T03:12:49;20.00;62.00
40868;DHT22;26586;50.708;22.412;2022-09-09T03:15:16;19.90;62.30
40868;DHT22;26586;50.708;22.412;2022-09-09T03:17:42;19.90;61.60
40868;DHT22;26586;50.708;22.412;2022-09-09T03:20:09;19.90;61.60
40868;DHT22;26586;50.708;22.412;2022-09-09T03:22:35;19.90;61.50
40868;DHT22;26586;50.708;22.412;2022-09-09T03:25:01;19.90;61.40
40868;DHT22;26586;50.708;22.412;2022-09-09T03:27:29;19.90;61.60
40868;DHT22;26586;50.708;22.412;2022-09-09T03:29:55;19.90;61.50
40868;DHT22;26586;50.708;22.412;2022-09-09T03:32:21;19.90;61.50
40868;DHT22;26586;50.708;22.412;2022-09-09T03:34:52;19.90;61.50
40868;DHT22;26586;50.708;22.412;2022-09-09T03:37:19;19.90;61.30
40868;DHT22;26586;50.708;22.412;2022-09-09T03:39:45;19.90;61.40
40868;DHT22;26586;50.708;22.412;2022-09-09T03:42:15;19.90;61.40
40868;DHT22;26586;50.708;22.412;2022-09-09T03:44:46;19.90;61.50
40868;DHT22;26586;50.708;22.412;2022-09-09T03:47:20;19.90;61.20
40868;DHT22;26586;50.708;22.412;2022-09-09T03:49:47;19.90;61.20
40868;DHT22;26586;50.708;22.412;2022-09-09T03:52:17;19.90;61.30
40868;DHT22;26586;50.708;22.412;2022-09-09T03:54:43;19.90;61.40
40868;DHT22;26586;50.708;22.412;2022-09-09T03:57:10;19.90;61.10
40868;DHT22;26586;50.708;22.412;2022-09-09T03:59:36;19.90;61.10
40868;DHT22;26586;50.708;22.412;2022-09-09T04:02:04;19.90;61.00
40868;DHT22;26586;50.708;22.412;2022-09-09T04:04:30;19.90;61.10
40868;DHT22;26586;50.708;22.412;2022-09-09T04:06:56;19.80;61.00
40868;DHT22;26586;50.708;22.412;2022-09-09T04:09:22;19.80;61.00
40868;DHT22;26586;50.708;22.412;2022-09-09T04:11:49;19.80;61.10
40868;DHT22;26586;50.708;22.412;2022-09-09T04:14:15;19.80;61.20
40868;DHT22;26586;50.708;22.412;2022-09-09T04:16:41;19.80;61.10
40868;DHT22;26586;50.708;22.412;2022-09-09T04:19:11;19.80;61.10
40868;DHT22;26586;50.708;22.412;2022-09-09T04:21:40;19.80;61.10
40868;DHT22;26586;50.708;22.412;2022-09-09T04:24:07;19.80;61.10
40868;DHT22;26586;50.708;22.412;2022-09-09T04:26:35;19.80;61.20
40868;DHT22;26586;50.708;22.412;2022-09-09T04:29:03;19.70;60.90
40868;DHT22;26586;50.708;22.412;2022-09-09T04:31:30;19.70;61.00
40868;DHT22;26586;50.708;22.412;2022-09-09T04:33:56;19.70;60.90
40868;DHT22;26586;50.708;22.412;2022-09-09T04:36:23;19.70;61.00
40868;DHT22;26586;50.708;22.412;2022-09-09T04:38:49;19.70;61.00
40868;DHT22;26586;50.708;22.412;2022-09-09T04:41:15;19.70;60.90
40868;DHT22;26586;50.708;22.412;2022-09-09T04:43:42;19.70;60.90
40868;DHT22;26586;50.708;22.412;2022-09-09T04:46:09;19.70;61.00
40868;DHT22;26586;50.708;22.412;2022-09-09T04:48:35;19.70;61.00
40868;DHT22;26586;50.708;22.412;2022-09-09T04:51:08;19.70;60.90
40868;DHT22;26586;50.708;22.412;2022-09-09T04:53:35;19.70;60.90
40868;DHT22;26586;50.708;22.412;2022-09-09T04:56:12;19.70;60.90
40868;DHT22;26586;50.708;22.412;2022-09-09T04:58:40;19.70;60.80
40868;DHT22;26586;50.708;22.412;2022-09-09T05:01:09;19.70;60.90
40868;DHT22;26586;50.708;22.412;2022-09-09T05:03:35;19.70;61.00
40868;DHT22;26586;50.708;22.412;2022-09-09T05:06:15;19.70;61.00
40868;DHT22;26586;50.708;22.412;2022-09-09T05:08:43;19.70;60.80
40868;DHT22;26586;50.708;22.412;2022-09-09T05:11:18;19.80;60.70
40868;DHT22;26586;50.708;22.412;2022-09-09T05:13:44;19.70;60.70
40868;DHT22;26586;50.708;22.412;2022-09-09T05:16:11;19.70;60.80
40868;DHT22;26586;50.708;22.412;2022-09-09T05:18:39;19.70;60.80
40868;DHT22;26586;50.708;22.412;2022-09-09T05:21:05;19.70;60.90
40868;DHT22;26586;50.708;22.412;2022-09-09T05:23:36;19.70;60.90
40868;DHT22;26586;50.708;22.412;2022-09-09T05:26:02;19.70;61.10
40868;DHT22;26586;50.708;22.412;2022-09-09T05:28:29;19.70;60.90
40868;DHT22;26586;50.708;22.412;2022-09-09T05:30:58;19.70;61.00
40868;DHT22;26586;50.708;22.412;2022-09-09T05:33:25;19.60;61.00
40868;DHT22;26586;50.708;22.412;2022-09-09T05:36:03;19.70;61.10
40868;DHT22;26586;50.708;22.412;2022-09-09T05:38:31;19.70;61.00
40868;DHT22;26586;50.708;22.412;2022-09-09T05:40:59;19.60;61.20
40868;DHT22;26586;50.708;22.412;2022-09-09T05:43:26;19.60;60.90
40868;DHT22;26586;50.708;22.412;2022-09-09T05:46:00;19.70;61.00
40868;DHT22;26586;50.708;22.412;2022-09-09T05:48:37;19.70;61.00
40868;DHT22;26586;50.708;22.412;2022-09-09T05:51:06;19.70;61.10
40868;DHT22;26586;50.708;22.412;2022-09-09T05:53:35;19.70;61.20
40868;DHT22;26586;50.708;22.412;2022-09-09T05:56:07;19.70;61.00
40868;DHT22;26586;50.708;22.412;2022-09-09T05:58:36;19.60;61.10
40868;DHT22;26586;50.708;22.412;2022-09-09T06:01:08;19.60;61.00
40868;DHT22;26586;50.708;22.412;2022-09-09T06:03:37;19.60;61.20
40868;DHT22;26586;50.708;22.412;2022-09-09T06:06:05;19.70;61.20
40868;DHT22;26586;50.708;22.412;2022-09-09T06:08:33;19.60;60.90
40868;DHT22;26586;50.708;22.412;2022-09-09T06:11:08;19.70;61.10
40868;DHT22;26586;50.708;22.412;2022-09-09T06:13:35;19.70;61.30
40868;DHT22;26586;50.708;22.412;2022-09-09T06:16:03;19.70;61.10
40868;DHT22;26586;50.708;22.412;2022-09-09T06:18:30;19.60;61.10
40868;DHT22;26586;50.708;22.412;2022-09-09T06:21:01;19.70;61.50
40868;DHT22;26586;50.708;22.412;2022-09-09T06:23:29;19.70;61.30
40868;DHT22;26586;50.708;22.412;2022-09-09T06:26:16;19.70;61.40
40868;DHT22;26586;50.708;22.412;2022-09-09T06:28:47;19.70;61.70
40868;DHT22;26586;50.708;22.412;2022-09-09T06:31:16;19.70;61.90
40868;DHT22;26586;50.708;22.412;2022-09-09T06:33:50;19.70;61.70
40868;DHT22;26586;50.708;22.412;2022-09-09T06:36:21;19.70;61.70
40868;DHT22;26586;50.708;22.412;2022-09-09T06:38:49;19.70;61.80
40868;DHT22;26586;50.708;22.412;2022-09-09T06:41:18;19.70;61.70
40868;DHT22;26586;50.708;22.412;2022-09-09T06:43:48;19.70;62.00
40868;DHT22;26586;50.708;22.412;2022-09-09T06:46:17;19.60;61.90
40868;DHT22;26586;50.708;22.412;2022-09-09T06:48:45;19.60;62.10
40868;DHT22;26586;50.708;22.412;2022-09-09T06:51:13;19.60;62.10
40868;DHT22;26586;50.708;22.412;2022-09-09T06:53:41;19.60;62.30
40868;DHT22;26586;50.708;22.412;2022-09-09T06:58:38;19.60;62.50
40868;DHT22;26586;50.708;22.412;2022-09-09T07:01:10;19.60;62.40
40868;DHT22;26586;50.708;22.412;2022-09-09T07:03:38;19.60;62.40
40868;DHT22;26586;50.708;22.412;2022-09-09T07:06:05;19.60;62.60
40868;DHT22;26586;50.708;22.412;2022-09-09T07:08:32;19.60;62.80
40868;DHT22;26586;50.708;22.412;2022-09-09T07:11:05;19.60;62.50
40868;DHT22;26586;50.708;22.412;2022-09-09T07:13:32;19.60;62.60
40868;DHT22;26586;50.708;22.412;2022-09-09T07:16:06;19.60;62.80
40868;DHT22;26586;50.708;22.412;2022-09-09T07:18:33;19.60;62.70
40868;DHT22;26586;50.708;22.412;2022-09-09T07:21:01;19.70;62.90
40868;DHT22;26586;50.708;22.412;2022-09-09T07:23:29;19.70;63.00
40868;DHT22;26586;50.708;22.412;2022-09-09T07:25:59;19.70;63.00
40868;DHT22;26586;50.708;22.412;2022-09-09T07:28:25;19.70;63.10
40868;DHT22;26586;50.708;22.412;2022-09-09T07:30:56;19.70;63.10
40868;DHT22;26586;50.708;22.412;2022-09-09T07:33:23;19.70;63.20
40868;DHT22;26586;50.708;22.412;2022-09-09T07:35:50;19.70;63.10
40868;DHT22;26586;50.708;22.412;2022-09-09T07:38:17;19.70;62.90
40868;DHT22;26586;50.708;22.412;2022-09-09T07:40:43;19.70;63.10
40868;DHT22;26586;50.708;22.412;2022-09-09T07:43:09;19.70;63.00
40868;DHT22;26586;50.708;22.412;2022-09-09T07:45:36;19.70;62.90
40868;DHT22;26586;50.708;22.412;2022-09-09T07:48:03;19.70;63.00
40868;DHT22;26586;50.708;22.412;2022-09-09T07:50:30;19.70;62.90
40868;DHT22;26586;50.708;22.412;2022-09-09T07:52:56;19.70;63.10
40868;DHT22;26586;50.708;22.412;2022-09-09T07:55:23;19.70;63.10
40868;DHT22;26586;50.708;22.412;2022-09-09T07:57:55;19.70;63.40
40868;DHT22;26586;50.708;22.412;2022-09-09T08:00:21;19.70;63.20
40868;DHT22;26586;50.708;22.412;2022-09-09T08:02:49;19.70;63.10
40868;DHT22;26586;50.708;22.412;2022-09-09T08:05:16;19.70;63.20
40868;DHT22;26586;50.708;22.412;2022-09-09T08:07:42;19.70;63.20
40868;DHT22;26586;50.708;22.412;2022-09-09T08:10:09;19.70;63.10
40868;DHT22;26586;50.708;22.412;2022-09-09T08:12:36;19.70;63.10
40868;DHT22;26586;50.708;22.412;2022-09-09T08:15:02;19.80;63.30
40868;DHT22;26586;50.708;22.412;2022-09-09T08:17:29;19.80;63.20
40868;DHT22;26586;50.708;22.412;2022-09-09T08:19:55;19.80;63.30
40868;DHT22;26586;50.708;22.412;2022-09-09T08:22:21;19.80;63.30
40868;DHT22;26586;50.708;22.412;2022-09-09T08:24:48;19.80;63.60
40868;DHT22;26586;50.708;22.412;2022-09-09T08:27:14;19.80;63.30
40868;DHT22;26586;50.708;22.412;2022-09-09T08:29:40;19.80;63.40
40868;DHT22;26586;50.708;22.412;2022-09-09T08:32:06;19.80;63.50
40868;DHT22;26586;50.708;22.412;2022-09-09T08:34:32;19.80;63.50
40868;DHT22;26586;50.708;22.412;2022-09-09T08:36:59;19.80;63.50
40868;DHT22;26586;50.708;22.412;2022-09-09T08:39:25;19.80;63.50
40868;DHT22;26586;50.708;22.412;2022-09-09T09:11:55;20.00;64.40
40868;DHT22;26586;50.708;22.412;2022-09-09T09:14:29;20.00;64.40
40868;DHT22;26586;50.708;22.412;2022-09-09T09:17:03;20.00;64.40
40868;DHT22;26586;50.708;22.412;2022-09-09T09:19:33;20.00;64.40
40868;DHT22;26586;50.708;22.412;2022-09-09T09:22:18;20.00;64.50
40868;DHT22;26586;50.708;22.412;2022-09-09T09:27:58;20.00;64.70
40868;DHT22;26586;50.708;22.412;2022-09-09T09:31:27;20.10;64.80
40868;DHT22;26586;50.708;22.412;2022-09-09T09:35:55;20.10;64.70
40868;DHT22;26586;50.708;22.412;2022-09-09T09:38:26;20.10;64.90
40868;DHT22;26586;50.708;22.412;2022-09-09T09:40:55;20.10;64.80
40868;DHT22;26586;50.708;22.412;2022-09-09T09:43:31;20.10;64.90
40868;DHT22;26586;50.708;22.412;2022-09-09T09:45:58;20.20;65.00
40868;DHT22;26586;50.708;22.412;2022-09-09T09:48:26;20.20;64.90
40868;DHT22;26586;50.708;22.412;2022-09-09T09:51:00;20.20;64.80
40868;DHT22;26586;50.708;22.412;2022-09-09T09:53:29;20.20;64.80
40868;DHT22;26586;50.708;22.412;2022-09-09T09:55:58;20.20;64.80
40868;DHT22;26586;50.708;22.412;2022-09-09T09:58:26;20.30;65.00
40868;DHT22;26586;50.708;22.412;2022-09-09T10:00:54;20.30;64.80
40868;DHT22;26586;50.708;22.412;2022-09-09T10:05:52;20.30;64.80
40868;DHT22;26586;50.708;22.412;2022-09-09T10:08:20;20.30;64.70
40868;DHT22;26586;50.708;22.412;2022-09-09T10:13:24;20.40;64.80
40868;DHT22;26586;50.708;22.412;2022-09-09T10:24:18;20.50;65.00
40868;DHT22;26586;50.708;22.412;2022-09-09T10:32:49;20.50;64.70
40868;DHT22;26586;50.708;22.412;2022-09-09T10:57:55;20.70;64.80
40868;DHT22;26586;50.708;22.412;2022-09-09T11:00:01;20.70;64.80
40868;DHT22;26586;50.708;22.412;2022-09-09T11:02:30;20.70;64.80
40868;DHT22;26586;50.708;22.412;2022-09-09T11:08:15;20.80;64.70
40868;DHT22;26586;50.708;22.412;2022-09-09T11:18:47;20.80;64.60
40868;DHT22;26586;50.708;22.412;2022-09-09T11:21:29;20.90;64.60
40868;DHT22;26586;50.708;22.412;2022-09-09T11:24:05;20.90;64.60
40868;DHT22;26586;50.708;22.412;2022-09-09T11:26:41;20.90;64.60
40868;DHT22;26586;50.708;22.412;2022-09-09T11:29:43;20.90;64.70
40868;DHT22;26586;50.708;22.412;2022-09-09T11:32:35;20.90;64.70
40868;DHT22;26586;50.708;22.412;2022-09-09T11:40:40;21.00;64.80
40868;DHT22;26586;50.708;22.412;2022-09-09T11:43:13;21.00;64.60
40868;DHT22;26586;50.708;22.412;2022-09-09T11:45:41;21.00;64.60
40868;DHT22;26586;50.708;22.412;2022-09-09T11:48:33;21.00;64.80
40868;DHT22;26586;50.708;22.412;2022-09-09T11:51:09;21.00;64.70
40868;DHT22;26586;50.708;22.412;2022-09-09T11:56:26;21.10;64.60
40868;DHT22;26586;50.708;22.412;2022-09-09T12:01:41;21.10;64.60
40868;DHT22;26586;50.708;22.412;2022-09-09T12:09:25;21.20;64.70
40868;DHT22;26586;50.708;22.412;2022-09-09T12:12:05;21.10;64.70
40868;DHT22;26586;50.708;22.412;2022-09-09T12:19:42;21.20;65.40
40868;DHT22;26586;50.708;22.412;2022-09-09T12:26:00;21.20;65.50
40868;DHT22;26586;50.708;22.412;2022-09-09T12:31:04;21.30;65.60
40868;DHT22;26586;50.708;22.412;2022-09-09T12:33:36;21.30;65.80
40868;DHT22;26586;50.708;22.412;2022-09-09T12:36:04;21.30;65.80
40868;DHT22;26586;50.708;22.412;2022-09-09T12:38:38;21.30;65.70
40868;DHT22;26586;50.708;22.412;2022-09-09T12:41:05;21.30;65.80
40868;DHT22;26586;50.708;22.412;2022-09-09T12:43:32;21.40;65.70
40868;DHT22;26586;50.708;22.412;2022-09-09T12:46:01;21.40;65.60
40868;DHT22;26586;50.708;22.412;2022-09-09T12:48:40;21.40;64.50
40868;DHT22;26586;50.708;22.412;2022-09-09T12:51:31;21.50;64.70
40868;DHT22;26586;50.708;22.412;2022-09-09T12:53:59;21.50;65.00
40868;DHT22;26586;50.708;22.412;2022-09-09T12:56:30;21.60;65.20
40868;DHT22;26586;50.708;22.412;2022-09-09T12:58:57;21.60;64.80
40868;DHT22;26586;50.708;22.412;2022-09-09T13:01:29;21.60;64.80
40868;DHT22;26586;50.708;22.412;2022-09-09T13:03:57;21.60;64.50
40868;DHT22;26586;50.708;22.412;2022-09-09T13:06:28;21.70;64.60
40868;DHT22;26586;50.708;22.412;2022-09-09T13:08:56;21.70;64.30
40868;DHT22;26586;50.708;22.412;2022-09-09T13:11:41;21.80;64.20
40868;DHT22;26586;50.708;22.412;2022-09-09T13:14:37;21.70;64.10
40868;DHT22;26586;50.708;22.412;2022-09-09T13:17:06;21.80;63.70
40868;DHT22;26586;50.708;22.412;2022-09-09T13:19:36;21.80;63.80
40868;DHT22;26586;50.708;22.412;2022-09-09T13:22:14;21.90;63.80
40868;DHT22;26586;50.708;22.412;2022-09-09T13:24:41;21.90;63.60
40868;DHT22;26586;50.708;22.412;2022-09-09T13:27:26;21.90;63.60
40868;DHT22;26586;50.708;22.412;2022-09-09T13:29:55;21.90;63.40
40868;DHT22;26586;50.708;22.412;2022-09-09T13:32:24;22.00;63.10
40868;DHT22;26586;50.708;22.412;2022-09-09T13:34:56;22.00;62.90
40868;DHT22;26586;50.708;22.412;2022-09-09T13:37:41;22.00;62.60
40868;DHT22;26586;50.708;22.412;2022-09-09T13:40:17;22.10;62.90
40868;DHT22;26586;50.708;22.412;2022-09-09T13:42:44;22.10;62.90
40868;DHT22;26586;50.708;22.412;2022-09-09T13:45:19;22.10;62.80
40868;DHT22;26586;50.708;22.412;2022-09-09T13:47:48;22.20;62.60
40868;DHT22;26586;50.708;22.412;2022-09-09T13:50:26;22.20;62.60
40868;DHT22;26586;50.708;22.412;2022-09-09T13:52:55;22.20;62.60
40868;DHT22;26586;50.708;22.412;2022-09-09T13:55:28;22.20;62.50
40868;DHT22;26586;50.708;22.412;2022-09-09T13:58:02;22.20;62.40
40868;DHT22;26586;50.708;22.412;2022-09-09T14:00:37;22.20;62.40
40868;DHT22;26586;50.708;22.412;2022-09-09T14:03:03;22.20;61.90
40868;DHT22;26586;50.708;22.412;2022-09-09T14:05:33;22.20;61.60
40868;DHT22;26586;50.708;22.412;2022-09-09T14:08:00;22.30;62.10
40868;DHT22;26586;50.708;22.412;2022-09-09T14:10:26;22.30;62.20
40868;DHT22;26586;50.708;22.412;2022-09-09T14:12:52;22.30;62.00
40868;DHT22;26586;50.708;22.412;2022-09-09T14:15:18;22.30;62.00
40868;DHT22;26586;50.708;22.412;2022-09-09T14:17:46;22.40;62.00
40868;DHT22;26586;50.708;22.412;2022-09-09T14:20:12;22.40;62.00
40868;DHT22;26586;50.708;22.412;2022-09-09T14:22:41;22.40;61.90
40868;DHT22;26586;50.708;22.412;2022-09-09T14:25:07;22.40;61.90
40868;DHT22;26586;50.708;22.412;2022-09-09T14:27:33;22.40;61.80
40868;DHT22;26586;50.708;22.412;2022-09-09T14:30:00;22.40;61.80
40868;DHT22;26586;50.708;22.412;2022-09-09T14:32:27;22.40;61.70
40868;DHT22;26586;50.708;22.412;2022-09-09T14:34:53;22.50;61.70
40868;DHT22;26586;50.708;22.412;2022-09-09T14:37:19;22.50;61.70
40868;DHT22;26586;50.708;22.412;2022-09-09T14:39:46;22.50;61.70
40868;DHT22;26586;50.708;22.412;2022-09-09T14:42:13;22.50;61.60
40868;DHT22;26586;50.708;22.412;2022-09-09T14:44:40;22.50;61.50
40868;DHT22;26586;50.708;22.412;2022-09-09T14:47:07;22.60;61.50
40868;DHT22;26586;50.708;22.412;2022-09-09T14:49:35;22.60;61.50
40868;DHT22;26586;50.708;22.412;2022-09-09T14:52:01;22.60;61.30
40868;DHT22;26586;50.708;22.412;2022-09-09T14:54:28;22.60;61.20
40868;DHT22;26586;50.708;22.412;2022-09-09T14:56:54;22.60;61.30
40868;DHT22;26586;50.708;22.412;2022-09-09T14:59:20;22.60;61.10
40868;DHT22;26586;50.708;22.412;2022-09-09T15:01:48;22.60;61.20
40868;DHT22;26586;50.708;22.412;2022-09-09T15:04:14;22.60;61.20
40868;DHT22;26586;50.708;22.412;2022-09-09T15:06:40;22.60;61.10
40868;DHT22;26586;50.708;22.412;2022-09-09T15:09:08;22.60;61.00
40868;DHT22;26586;50.708;22.412;2022-09-09T15:11:36;22.70;60.90
40868;DHT22;26586;50.708;22.412;2022-09-09T15:14:04;22.70;60.70
40868;DHT22;26586;50.708;22.412;2022-09-09T15:16:31;22.60;60.50
40868;DHT22;26586;50.708;22.412;2022-09-09T15:18:59;22.60;60.50
40868;DHT22;26586;50.708;22.412;2022-09-09T15:21:36;22.60;60.40
40868;DHT22;26586;50.708;22.412;2022-09-09T15:24:03;22.70;60.50
40868;DHT22;26586;50.708;22.412;2022-09-09T15:26:30;22.70;60.30
40868;DHT22;26586;50.708;22.412;2022-09-09T15:28:57;22.70;60.20
40868;DHT22;26586;50.708;22.412;2022-09-09T15:31:27;22.70;60.10
40868;DHT22;26586;50.708;22.412;2022-09-09T15:33:57;22.60;60.10
40868;DHT22;26586;50.708;22.412;2022-09-09T15:36:47;22.60;60.00
40868;DHT22;26586;50.708;22.412;2022-09-09T15:39:16;22.60;60.00
40868;DHT22;26586;50.708;22.412;2022-09-09T15:41:44;22.60;59.90
40868;DHT22;26586;50.708;22.412;2022-09-09T15:44:11;22.60;59.90
40868;DHT22;26586;50.708;22.412;2022-09-09T15:46:40;22.60;59.90
40868;DHT22;26586;50.708;22.412;2022-09-09T15:49:17;22.50;59.80
40868;DHT22;26586;50.708;22.412;2022-09-09T15:52:09;22.50;59.70
40868;DHT22;26586;50.708;22.412;2022-09-09T15:54:37;22.50;59.70
40868;DHT22;26586;50.708;22.412;2022-09-09T15:57:07;22.50;59.70
40868;DHT22;26586;50.708;22.412;2022-09-09T15:59:36;22.40;59.60
40868;DHT22;26586;50.708;22.412;2022-09-09T16:02:03;22.40;59.60
40868;DHT22;26586;50.708;22.412;2022-09-09T16:04:29;22.50;60.20
40868;DHT22;26586;50.708;22.412;2022-09-09T16:07:00;22.40;59.60
40868;DHT22;26586;50.708;22.412;2022-09-09T16:09:28;22.40;59.70
40868;DHT22;26586;50.708;22.412;2022-09-09T16:12:02;22.40;59.60
40868;DHT22;26586;50.708;22.412;2022-09-09T16:14:29;22.40;59.50
40868;DHT22;26586;50.708;22.412;2022-09-09T16:17:00;22.30;59.60
40868;DHT22;26586;50.708;22.412;2022-09-09T16:19:26;22.30;59.40
40868;DHT22;26586;50.708;22.412;2022-09-09T16:21:53;22.30;59.40
40868;DHT22;26586;50.708;22.412;2022-09-09T16:24:19;22.30;59.30
40868;DHT22;26586;50.708;22.412;2022-09-09T16:26:51;22.30;59.40
40868;DHT22;26586;50.708;22.412;2022-09-09T16:29:18;22.30;59.40
40868;DHT22;26586;50.708;22.412;2022-09-09T16:31:45;22.30;59.60
40868;DHT22;26586;50.708;22.412;2022-09-09T16:34:13;22.20;59.40
40868;DHT22;26586;50.708;22.412;2022-09-09T16:36:42;22.20;59.40
40868;DHT22;26586;50.708;22.412;2022-09-09T16:39:11;22.20;59.40
40868;DHT22;26586;50.708;22.412;2022-09-09T16:41:39;22.20;59.60
40868;DHT22;26586;50.708;22.412;2022-09-09T16:44:08;22.20;59.50
40868;DHT22;26586;50.708;22.412;2022-09-09T16:46:36;22.10;59.40
40868;DHT22;26586;50.708;22.412;2022-09-09T16:49:06;22.10;59.50
40868;DHT22;26586;50.708;22.412;2022-09-09T16:51:41;22.10;59.50
40868;DHT22;26586;50.708;22.412;2022-09-09T16:54:08;22.10;59.60
40868;DHT22;26586;50.708;22.412;2022-09-09T16:56:37;22.00;59.60
40868;DHT22;26586;50.708;22.412;2022-09-09T16:59:07;22.00;59.70
40868;DHT22;26586;50.708;22.412;2022-09-09T17:01:35;22.00;59.70
40868;DHT22;26586;50.708;22.412;2022-09-09T17:04:09;22.00;59.80
40868;DHT22;26586;50.708;22.412;2022-09-09T17:06:37;21.90;59.70
40868;DHT22;26586;50.708;22.412;2022-09-09T17:09:06;21.90;59.80
40868;DHT22;26586;50.708;22.412;2022-09-09T17:11:34;21.90;59.80
40868;DHT22;26586;50.708;22.412;2022-09-09T17:14:00;21.80;59.70
40868;DHT22;26586;50.708;22.412;2022-09-09T17:16:29;21.80;59.60
40868;DHT22;26586;50.708;22.412;2022-09-09T17:18:57;21.80;59.80
40868;DHT22;26586;50.708;22.412;2022-09-09T17:21:26;21.80;60.40
40868;DHT22;26586;50.708;22.412;2022-09-09T17:23:54;21.80;59.80
40868;DHT22;26586;50.708;22.412;2022-09-09T17:26:25;21.80;59.90
40868;DHT22;26586;50.708;22.412;2022-09-09T17:28:55;21.70;59.90
40868;DHT22;26586;50.708;22.412;2022-09-09T17:31:24;21.70;59.90
40868;DHT22;26586;50.708;22.412;2022-09-09T17:33:52;21.70;59.90
40868;DHT22;26586;50.708;22.412;2022-09-09T17:36:28;21.70;60.00
40868;DHT22;26586;50.708;22.412;2022-09-09T17:38:56;21.70;60.00
40868;DHT22;26586;50.708;22.412;2022-09-09T17:41:25;21.60;60.00
40868;DHT22;26586;50.708;22.412;2022-09-09T17:43:51;21.60;60.00
40868;DHT22;26586;50.708;22.412;2022-09-09T17:46:20;21.60;60.00
40868;DHT22;26586;50.708;22.412;2022-09-09T17:48:49;21.60;60.00
40868;DHT22;26586;50.708;22.412;2022-09-09T17:51:19;21.60;60.00
40868;DHT22;26586;50.708;22.412;2022-09-09T17:53:48;21.60;60.10
40868;DHT22;26586;50.708;22.412;2022-09-09T17:56:17;21.60;60.10
40868;DHT22;26586;50.708;22.412;2022-09-09T17:58:46;21.60;60.10
40868;DHT22;26586;50.708;22.412;2022-09-09T18:01:16;21.50;60.00
40868;DHT22;26586;50.708;22.412;2022-09-09T18:03:43;21.50;60.00
40868;DHT22;26586;50.708;22.412;2022-09-09T18:06:12;21.50;60.20
40868;DHT22;26586;50.708;22.412;2022-09-09T18:08:39;21.50;60.10
40868;DHT22;26586;50.708;22.412;2022-09-09T18:11:06;21.50;60.10
40868;DHT22;26586;50.708;22.412;2022-09-09T18:13:33;21.50;60.10
40868;DHT22;26586;50.708;22.412;2022-09-09T18:16:00;21.50;60.00
40868;DHT22;26586;50.708;22.412;2022-09-09T18:18:28;21.40;59.90
40868;DHT22;26586;50.708;22.412;2022-09-09T18:21:02;21.40;59.90